sensor_id;sensor_type;location;lat;lon;timestamp;P1;durP1;ratioP1;P2;durP2;ratioP2
16804;SDS011;8520;50.102;20.010;2023-05-29T00:02:16;5.23;;;4.93;;
16804;SDS011;8520;50.102;20.010;2023-05-29T00:04:44;5.60;;;5.20;;
16804;SDS011;8520;50.102;20.010;2023-05-29T00:07:12;5.93;;;5.40;;
16804;SDS011;8520;50.102;20.010;2023-05-29T00:09:40;5.83;;;5.20;;
16804;SDS011;8520;50.102;20.010;2023-05-29T00:12:08;5.37;;;4.90;;
16804;SDS011;8520;50.102;20.010;2023-05-29T00:14:38;5.57;;;5.10;;
16804;SDS011;8520;50.102;20.010;2023-05-29T00:17:08;5.47;;;4.77;;
16804;SDS011;8520;50.102;20.010;2023-05-29T00:19:39;5.60;;;5.20;;
16804;SDS011;8520;50.102;20.010;2023-05-29T00:22:07;5.80;;;5.40;;
16804;SDS011;8520;50.102;20.010;2023-05-29T00:24:35;5.17;;;4.77;;
16804;SDS011;8520;50.102;20.010;2023-05-29T00:27:03;5.80;;;5.30;;
16804;SDS011;8520;50.102;20.010;2023-05-29T00:29:32;5.67;;;5.27;;
16804;SDS011;8520;50.102;20.010;2023-05-29T00:32:01;5.47;;;4.97;;
16804;SDS011;8520;50.102;20.010;2023-05-29T00:34:31;6.57;;;5.00;;
16804;SDS011;8520;50.102;20.010;2023-05-29T00:36:59;5.50;;;5.00;;
16804;SDS011;8520;50.102;20.010;2023-05-29T00:39:28;5.30;;;4.90;;
16804;SDS011;8520;50.102;20.010;2023-05-29T00:41:56;7.57;;;5.17;;
16804;SDS011;8520;50.102;20.010;2023-05-29T00:44:24;5.23;;;4.87;;
16804;SDS011;8520;50.102;20.010;2023-05-29T00:46:52;5.47;;;5.07;;
16804;SDS011;8520;50.102;20.010;2023-05-29T00:49:21;5.60;;;5.10;;
16804;SDS011;8520;50.102;20.010;2023-05-29T00:51:51;7.40;;;5.60;;
16804;SDS011;8520;50.102;20.010;2023-05-29T00:54:23;5.70;;;5.20;;
16804;SDS011;8520;50.102;20.010;2023-05-29T00:56:56;5.97;;;5.57;;
16804;SDS011;8520;50.102;20.010;2023-05-29T00:59:25;5.50;;;5.20;;
16804;SDS011;8520;50.102;20.010;2023-05-29T01:01:54;5.73;;;5.33;;
16804;SDS011;8520;50.102;20.010;2023-05-29T01:04:24;5.90;;;5.50;;
16804;SDS011;8520;50.102;20.010;2023-05-29T01:06:54;5.23;;;4.80;;
16804;SDS011;8520;50.102;20.010;2023-05-29T01:09:23;5.60;;;5.10;;
16804;SDS011;8520;50.102;20.010;2023-05-29T01:11:57;5.07;;;4.63;;
16804;SDS011;8520;50.102;20.010;2023-05-29T01:14:32;5.57;;;5.17;;
16804;SDS011;8520;50.102;20.010;2023-05-29T01:17:16;5.40;;;4.77;;
16804;SDS011;8520;50.102;20.010;2023-05-29T01:19:59;5.70;;;5.30;;
16804;SDS011;8520;50.102;20.010;2023-05-29T01:22:45;5.87;;;5.37;;
16804;SDS011;8520;50.102;20.010;2023-05-29T01:25:35;6.00;;;5.50;;
16804;SDS011;8520;50.102;20.010;2023-05-29T01:28:19;6.30;;;5.20;;
16804;SDS011;8520;50.102;20.010;2023-05-29T01:30:49;5.70;;;5.13;;
16804;SDS011;8520;50.102;20.010;2023-05-29T01:33:18;5.10;;;4.80;;
16804;SDS011;8520;50.102;20.010;2023-05-29T01:35:49;5.60;;;5.20;;
16804;SDS011;8520;50.102;20.010;2023-05-29T01:38:18;5.57;;;5.07;;
16804;SDS011;8520;50.102;20.010;2023-05-29T01:40:46;6.40;;;5.90;;
16804;SDS011;8520;50.102;20.010;2023-05-29T01:43:16;5.63;;;5.23;;
16804;SDS011;8520;50.102;20.010;2023-05-29T01:45:46;5.40;;;5.10;;
16804;SDS011;8520;50.102;20.010;2023-05-29T01:48:14;6.23;;;5.77;;
16804;SDS011;8520;50.102;20.010;2023-05-29T01:50:43;6.20;;;5.70;;
16804;SDS011;8520;50.102;20.010;2023-05-29T01:53:12;5.83;;;5.50;;
16804;SDS011;8520;50.102;20.010;2023-05-29T01:55:41;5.97;;;5.50;;
16804;SDS011;8520;50.102;20.010;2023-05-29T01:58:10;6.43;;;5.93;;
16804;SDS011;8520;50.102;20.010;2023-05-29T02:00:39;6.73;;;6.00;;
16804;SDS011;8520;50.102;20.010;2023-05-29T02:03:09;6.27;;;5.87;;
16804;SDS011;8520;50.102;20.010;2023-05-29T02:05:39;6.53;;;6.03;;
16804;SDS011;8520;50.102;20.010;2023-05-29T02:08:07;6.23;;;5.83;;
16804;SDS011;8520;50.102;20.010;2023-05-29T02:10:36;6.53;;;6.03;;
16804;SDS011;8520;50.102;20.010;2023-05-29T02:13:04;8.27;;;6.30;;
16804;SDS011;8520;50.102;20.010;2023-05-29T02:15:32;7.00;;;6.47;;
16804;SDS011;8520;50.102;20.010;2023-05-29T02:18:01;6.30;;;5.87;;
16804;SDS011;8520;50.102;20.010;2023-05-29T02:20:30;6.27;;;5.87;;
16804;SDS011;8520;50.102;20.010;2023-05-29T02:22:59;6.13;;;5.83;;
16804;SDS011;8520;50.102;20.010;2023-05-29T02:25:27;7.97;;;7.10;;
16804;SDS011;8520;50.102;20.010;2023-05-29T02:27:55;6.63;;;6.23;;
16804;SDS011;8520;50.102;20.010;2023-05-29T02:30:23;8.87;;;8.27;;
16804;SDS011;8520;50.102;20.010;2023-05-29T02:32:51;8.17;;;7.57;;
16804;SDS011;8520;50.102;20.010;2023-05-29T02:35:19;6.83;;;6.43;;
16804;SDS011;8520;50.102;20.010;2023-05-29T02:37:50;7.23;;;6.80;;
16804;SDS011;8520;50.102;20.010;2023-05-29T02:40:19;6.87;;;6.57;;
16804;SDS011;8520;50.102;20.010;2023-05-29T02:42:47;6.83;;;6.40;;
16804;SDS011;8520;50.102;20.010;2023-05-29T02:45:15;7.60;;;7.10;;
16804;SDS011;8520;50.102;20.010;2023-05-29T02:47:43;7.13;;;6.63;;
16804;SDS011;8520;50.102;20.010;2023-05-29T02:50:12;12.13;;;7.20;;
16804;SDS011;8520;50.102;20.010;2023-05-29T02:52:41;7.70;;;7.20;;
16804;SDS011;8520;50.102;20.010;2023-05-29T02:55:10;7.57;;;7.07;;
16804;SDS011;8520;50.102;20.010;2023-05-29T02:57:39;7.37;;;6.93;;
16804;SDS011;8520;50.102;20.010;2023-05-29T03:00:07;7.40;;;7.00;;
16804;SDS011;8520;50.102;20.010;2023-05-29T03:02:38;7.67;;;7.07;;
16804;SDS011;8520;50.102;20.010;2023-05-29T03:05:06;7.20;;;6.80;;
16804;SDS011;8520;50.102;20.010;2023-05-29T03:07:36;7.03;;;6.63;;
16804;SDS011;8520;50.102;20.010;2023-05-29T03:10:04;7.07;;;6.67;;
16804;SDS011;8520;50.102;20.010;2023-05-29T03:12:35;7.57;;;7.07;;
16804;SDS011;8520;50.102;20.010;2023-05-29T03:15:03;7.13;;;6.63;;
16804;SDS011;8520;50.102;20.010;2023-05-29T03:17:32;7.83;;;7.27;;
16804;SDS011;8520;50.102;20.010;2023-05-29T03:20:00;8.23;;;7.53;;
16804;SDS011;8520;50.102;20.010;2023-05-29T03:22:32;7.90;;;7.30;;
16804;SDS011;8520;50.102;20.010;2023-05-29T03:25:01;7.90;;;7.23;;
16804;SDS011;8520;50.102;20.010;2023-05-29T03:27:29;8.90;;;8.20;;
16804;SDS011;8520;50.102;20.010;2023-05-29T03:30:07;7.57;;;7.07;;
16804;SDS011;8520;50.102;20.010;2023-05-29T03:32:37;7.30;;;6.70;;
16804;SDS011;8520;50.102;20.010;2023-05-29T03:35:06;8.00;;;7.27;;
16804;SDS011;8520;50.102;20.010;2023-05-29T03:37:38;7.10;;;6.70;;
16804;SDS011;8520;50.102;20.010;2023-05-29T03:40:06;10.83;;;7.30;;
16804;SDS011;8520;50.102;20.010;2023-05-29T03:42:35;7.57;;;6.93;;
16804;SDS011;8520;50.102;20.010;2023-05-29T03:45:04;9.70;;;7.10;;
16804;SDS011;8520;50.102;20.010;2023-05-29T03:47:36;8.63;;;7.13;;
16804;SDS011;8520;50.102;20.010;2023-05-29T03:50:05;8.17;;;7.57;;
16804;SDS011;8520;50.102;20.010;2023-05-29T03:52:35;8.27;;;7.50;;
16804;SDS011;8520;50.102;20.010;2023-05-29T03:55:05;7.90;;;7.40;;
16804;SDS011;8520;50.102;20.010;2023-05-29T03:57:39;7.27;;;6.77;;
16804;SDS011;8520;50.102;20.010;2023-05-29T04:00:08;7.60;;;7.00;;
16804;SDS011;8520;50.102;20.010;2023-05-29T04:02:46;8.07;;;7.53;;
16804;SDS011;8520;50.102;20.010;2023-05-29T04:05:14;7.30;;;6.70;;
16804;SDS011;8520;50.102;20.010;2023-05-29T04:07:42;7.20;;;6.70;;
16804;SDS011;8520;50.102;20.010;2023-05-29T04:10:10;6.70;;;6.00;;
16804;SDS011;8520;50.102;20.010;2023-05-29T04:12:39;7.10;;;6.60;;
16804;SDS011;8520;50.102;20.010;2023-05-29T04:15:08;6.27;;;5.83;;
16804;SDS011;8520;50.102;20.010;2023-05-29T04:17:36;7.83;;;7.23;;
16804;SDS011;8520;50.102;20.010;2023-05-29T04:20:07;6.53;;;5.80;;
16804;SDS011;8520;50.102;20.010;2023-05-29T04:22:36;7.40;;;6.80;;
16804;SDS011;8520;50.102;20.010;2023-05-29T04:25:05;6.83;;;6.10;;
16804;SDS011;8520;50.102;20.010;2023-05-29T04:27:33;7.07;;;6.47;;
16804;SDS011;8520;50.102;20.010;2023-05-29T04:30:07;7.77;;;6.60;;
16804;SDS011;8520;50.102;20.010;2023-05-29T04:32:41;7.50;;;6.23;;
16804;SDS011;8520;50.102;20.010;2023-05-29T04:35:12;7.23;;;5.83;;
16804;SDS011;8520;50.102;20.010;2023-05-29T04:37:53;7.30;;;6.60;;
16804;SDS011;8520;50.102;20.010;2023-05-29T04:40:30;5.80;;;5.40;;
16804;SDS011;8520;50.102;20.010;2023-05-29T04:43:01;13.13;;;6.20;;
16804;SDS011;8520;50.102;20.010;2023-05-29T04:45:54;7.00;;;6.40;;
16804;SDS011;8520;50.102;20.010;2023-05-29T04:48:24;6.73;;;5.90;;
16804;SDS011;8520;50.102;20.010;2023-05-29T04:50:54;6.40;;;5.80;;
16804;SDS011;8520;50.102;20.010;2023-05-29T04:53:24;11.63;;;7.23;;
16804;SDS011;8520;50.102;20.010;2023-05-29T04:55:52;12.77;;;6.43;;
16804;SDS011;8520;50.102;20.010;2023-05-29T04:58:21;8.50;;;6.50;;
16804;SDS011;8520;50.102;20.010;2023-05-29T05:00:51;8.73;;;6.05;;
16804;SDS011;8520;50.102;20.010;2023-05-29T05:03:19;8.60;;;6.40;;
16804;SDS011;8520;50.102;20.010;2023-05-29T05:05:47;7.00;;;5.70;;
16804;SDS011;8520;50.102;20.010;2023-05-29T05:08:17;7.45;;;6.70;;
16804;SDS011;8520;50.102;20.010;2023-05-29T05:10:45;7.80;;;6.30;;
16804;SDS011;8520;50.102;20.010;2023-05-29T05:13:13;6.30;;;5.68;;
16804;SDS011;8520;50.102;20.010;2023-05-29T05:15:42;6.53;;;5.93;;
16804;SDS011;8520;50.102;20.010;2023-05-29T05:18:10;6.65;;;5.97;;
16804;SDS011;8520;50.102;20.010;2023-05-29T05:20:39;6.80;;;6.05;;
16804;SDS011;8520;50.102;20.010;2023-05-29T05:23:07;15.18;;;5.85;;
16804;SDS011;8520;50.102;20.010;2023-05-29T05:25:38;9.65;;;6.20;;
16804;SDS011;8520;50.102;20.010;2023-05-29T05:28:07;7.30;;;5.13;;
16804;SDS011;8520;50.102;20.010;2023-05-29T05:30:36;11.07;;;6.03;;
16804;SDS011;8520;50.102;20.010;2023-05-29T05:33:04;13.60;;;6.03;;
16804;SDS011;8520;50.102;20.010;2023-05-29T05:35:32;13.75;;;5.15;;
16804;SDS011;8520;50.102;20.010;2023-05-29T05:38:00;12.07;;;5.38;;
16804;SDS011;8520;50.102;20.010;2023-05-29T05:40:29;11.48;;;4.90;;
16804;SDS011;8520;50.102;20.010;2023-05-29T05:43:05;9.60;;;5.53;;
16804;SDS011;8520;50.102;20.010;2023-05-29T05:45:56;14.65;;;5.50;;
16804;SDS011;8520;50.102;20.010;2023-05-29T05:48:25;11.82;;;5.55;;
16804;SDS011;8520;50.102;20.010;2023-05-29T05:50:53;7.53;;;4.78;;
16804;SDS011;8520;50.102;20.010;2023-05-29T05:53:22;9.80;;;5.15;;
16804;SDS011;8520;50.102;20.010;2023-05-29T05:55:51;9.07;;;5.53;;
16804;SDS011;8520;50.102;20.010;2023-05-29T05:58:21;7.57;;;4.80;;
16804;SDS011;8520;50.102;20.010;2023-05-29T06:00:49;14.60;;;5.70;;
16804;SDS011;8520;50.102;20.010;2023-05-29T06:03:19;12.60;;;5.25;;
16804;SDS011;8520;50.102;20.010;2023-05-29T06:06:01;6.18;;;5.30;;
16804;SDS011;8520;50.102;20.010;2023-05-29T06:08:29;9.93;;;5.75;;
16804;SDS011;8520;50.102;20.010;2023-05-29T06:10:57;12.23;;;5.85;;
16804;SDS011;8520;50.102;20.010;2023-05-29T06:13:27;8.38;;;5.43;;
16804;SDS011;8520;50.102;20.010;2023-05-29T06:16:02;10.98;;;6.20;;
16804;SDS011;8520;50.102;20.010;2023-05-29T06:18:31;8.43;;;6.63;;
16804;SDS011;8520;50.102;20.010;2023-05-29T06:20:59;12.43;;;5.70;;
16804;SDS011;8520;50.102;20.010;2023-05-29T06:23:29;9.70;;;6.07;;
16804;SDS011;8520;50.102;20.010;2023-05-29T06:25:57;9.13;;;5.53;;
16804;SDS011;8520;50.102;20.010;2023-05-29T06:28:27;9.07;;;5.18;;
16804;SDS011;8520;50.102;20.010;2023-05-29T06:30:55;9.68;;;5.28;;
16804;SDS011;8520;50.102;20.010;2023-05-29T06:33:24;8.80;;;5.28;;
16804;SDS011;8520;50.102;20.010;2023-05-29T06:35:52;13.50;;;5.82;;
16804;SDS011;8520;50.102;20.010;2023-05-29T06:38:20;10.02;;;5.28;;
16804;SDS011;8520;50.102;20.010;2023-05-29T06:40:49;16.45;;;5.68;;
16804;SDS011;8520;50.102;20.010;2023-05-29T06:43:17;11.73;;;6.20;;
16804;SDS011;8520;50.102;20.010;2023-05-29T06:45:48;9.38;;;5.00;;
16804;SDS011;8520;50.102;20.010;2023-05-29T06:48:17;13.63;;;5.82;;
16804;SDS011;8520;50.102;20.010;2023-05-29T06:50:47;10.55;;;5.63;;
16804;SDS011;8520;50.102;20.010;2023-05-29T06:53:34;15.48;;;5.63;;
16804;SDS011;8520;50.102;20.010;2023-05-29T06:56:02;14.75;;;6.20;;
16804;SDS011;8520;50.102;20.010;2023-05-29T06:58:32;19.42;;;5.60;;
16804;SDS011;8520;50.102;20.010;2023-05-29T07:01:02;10.77;;;5.28;;
16804;SDS011;8520;50.102;20.010;2023-05-29T07:03:35;15.77;;;5.40;;
16804;SDS011;8520;50.102;20.010;2023-05-29T07:06:04;10.32;;;5.78;;
16804;SDS011;8520;50.102;20.010;2023-05-29T07:08:34;20.70;;;5.32;;
16804;SDS011;8520;50.102;20.010;2023-05-29T07:11:02;14.20;;;5.32;;
16804;SDS011;8520;50.102;20.010;2023-05-29T07:13:30;11.05;;;6.35;;
16804;SDS011;8520;50.102;20.010;2023-05-29T07:16:01;13.38;;;5.70;;
16804;SDS011;8520;50.102;20.010;2023-05-29T07:18:51;9.60;;;5.55;;
16804;SDS011;8520;50.102;20.010;2023-05-29T07:21:19;13.90;;;5.70;;
16804;SDS011;8520;50.102;20.010;2023-05-29T07:23:48;9.25;;;5.68;;
16804;SDS011;8520;50.102;20.010;2023-05-29T07:26:16;6.57;;;5.40;;
16804;SDS011;8520;50.102;20.010;2023-05-29T07:28:44;8.70;;;5.75;;
16804;SDS011;8520;50.102;20.010;2023-05-29T07:31:14;10.15;;;5.85;;
16804;SDS011;8520;50.102;20.010;2023-05-29T07:33:42;11.63;;;5.68;;
16804;SDS011;8520;50.102;20.010;2023-05-29T07:36:11;16.05;;;6.45;;
16804;SDS011;8520;50.102;20.010;2023-05-29T07:38:39;13.18;;;5.78;;
16804;SDS011;8520;50.102;20.010;2023-05-29T07:41:07;11.50;;;6.28;;
16804;SDS011;8520;50.102;20.010;2023-05-29T07:43:37;13.60;;;6.22;;
16804;SDS011;8520;50.102;20.010;2023-05-29T07:46:07;8.70;;;6.40;;
16804;SDS011;8520;50.102;20.010;2023-05-29T07:48:40;8.88;;;5.85;;
16804;SDS011;8520;50.102;20.010;2023-05-29T07:51:08;14.07;;;5.07;;
16804;SDS011;8520;50.102;20.010;2023-05-29T07:53:39;13.68;;;5.90;;
16804;SDS011;8520;50.102;20.010;2023-05-29T07:56:08;20.05;;;5.47;;
16804;SDS011;8520;50.102;20.010;2023-05-29T07:58:37;9.90;;;6.03;;
16804;SDS011;8520;50.102;20.010;2023-05-29T08:01:06;12.60;;;5.88;;
16804;SDS011;8520;50.102;20.010;2023-05-29T08:03:35;9.18;;;5.50;;
16804;SDS011;8520;50.102;20.010;2023-05-29T08:06:20;6.32;;;5.32;;
16804;SDS011;8520;50.102;20.010;2023-05-29T08:08:49;11.60;;;5.28;;
16804;SDS011;8520;50.102;20.010;2023-05-29T08:11:20;5.88;;;4.88;;
16804;SDS011;8520;50.102;20.010;2023-05-29T08:13:49;7.78;;;5.00;;
16804;SDS011;8520;50.102;20.010;2023-05-29T08:16:17;6.70;;;5.50;;
16804;SDS011;8520;50.102;20.010;2023-05-29T08:18:45;9.70;;;6.28;;
16804;SDS011;8520;50.102;20.010;2023-05-29T08:21:14;5.38;;;4.88;;
16804;SDS011;8520;50.102;20.010;2023-05-29T08:23:43;8.90;;;5.93;;
16804;SDS011;8520;50.102;20.010;2023-05-29T08:26:11;12.13;;;6.78;;
16804;SDS011;8520;50.102;20.010;2023-05-29T08:28:40;10.63;;;7.32;;
16804;SDS011;8520;50.102;20.010;2023-05-29T08:31:08;8.57;;;5.57;;
16804;SDS011;8520;50.102;20.010;2023-05-29T08:33:36;8.13;;;5.80;;
16804;SDS011;8520;50.102;20.010;2023-05-29T08:36:04;9.25;;;5.88;;
16804;SDS011;8520;50.102;20.010;2023-05-29T08:38:33;5.55;;;5.05;;
16804;SDS011;8520;50.102;20.010;2023-05-29T08:41:02;8.23;;;5.35;;
16804;SDS011;8520;50.102;20.010;2023-05-29T08:43:32;5.78;;;5.18;;
16804;SDS011;8520;50.102;20.010;2023-05-29T08:46:01;6.63;;;4.65;;
16804;SDS011;8520;50.102;20.010;2023-05-29T08:48:30;6.32;;;5.32;;
16804;SDS011;8520;50.102;20.010;2023-05-29T08:50:58;5.15;;;4.63;;
16804;SDS011;8520;50.102;20.010;2023-05-29T08:53:30;5.15;;;4.65;;
16804;SDS011;8520;50.102;20.010;2023-05-29T08:55:59;5.30;;;4.75;;
16804;SDS011;8520;50.102;20.010;2023-05-29T08:58:30;5.88;;;4.88;;
16804;SDS011;8520;50.102;20.010;2023-05-29T09:00:58;8.77;;;5.32;;
16804;SDS011;8520;50.102;20.010;2023-05-29T09:03:27;6.30;;;5.55;;
16804;SDS011;8520;50.102;20.010;2023-05-29T09:05:57;7.68;;;6.25;;
16804;SDS011;8520;50.102;20.010;2023-05-29T09:08:26;6.03;;;5.43;;
16804;SDS011;8520;50.102;20.010;2023-05-29T09:10:55;5.65;;;4.97;;
16804;SDS011;8520;50.102;20.010;2023-05-29T09:13:24;6.93;;;4.70;;
16804;SDS011;8520;50.102;20.010;2023-05-29T09:15:57;6.82;;;5.78;;
16804;SDS011;8520;50.102;20.010;2023-05-29T09:18:28;5.72;;;5.18;;
16804;SDS011;8520;50.102;20.010;2023-05-29T09:20:57;5.95;;;4.95;;
16804;SDS011;8520;50.102;20.010;2023-05-29T09:23:28;6.68;;;5.30;;
16804;SDS011;8520;50.102;20.010;2023-05-29T09:25:56;9.38;;;5.47;;
16804;SDS011;8520;50.102;20.010;2023-05-29T09:28:25;7.97;;;5.60;;
16804;SDS011;8520;50.102;20.010;2023-05-29T09:30:54;7.35;;;5.13;;
16804;SDS011;8520;50.102;20.010;2023-05-29T09:33:25;6.13;;;5.55;;
16804;SDS011;8520;50.102;20.010;2023-05-29T09:35:53;5.18;;;4.57;;
16804;SDS011;8520;50.102;20.010;2023-05-29T09:38:21;7.28;;;4.70;;
16804;SDS011;8520;50.102;20.010;2023-05-29T09:41:10;7.45;;;4.60;;
16804;SDS011;8520;50.102;20.010;2023-05-29T09:43:38;7.38;;;4.40;;
16804;SDS011;8520;50.102;20.010;2023-05-29T09:46:08;10.82;;;4.55;;
16804;SDS011;8520;50.102;20.010;2023-05-29T09:48:43;7.07;;;4.40;;
16804;SDS011;8520;50.102;20.010;2023-05-29T09:51:18;6.15;;;5.57;;
16804;SDS011;8520;50.102;20.010;2023-05-29T09:53:48;4.75;;;4.35;;
16804;SDS011;8520;50.102;20.010;2023-05-29T09:56:18;10.50;;;4.55;;
16804;SDS011;8520;50.102;20.010;2023-05-29T09:58:47;7.38;;;4.60;;
16804;SDS011;8520;50.102;20.010;2023-05-29T10:01:18;4.88;;;4.40;;
16804;SDS011;8520;50.102;20.010;2023-05-29T10:03:46;7.03;;;4.15;;
16804;SDS011;8520;50.102;20.010;2023-05-29T10:06:15;6.03;;;4.65;;
16804;SDS011;8520;50.102;20.010;2023-05-29T10:08:48;4.57;;;4.07;;
16804;SDS011;8520;50.102;20.010;2023-05-29T10:11:20;5.82;;;4.50;;
16804;SDS011;8520;50.102;20.010;2023-05-29T10:13:51;4.80;;;4.40;;
16804;SDS011;8520;50.102;20.010;2023-05-29T10:16:23;8.90;;;4.70;;
16804;SDS011;8520;50.102;20.010;2023-05-29T10:18:53;5.53;;;5.03;;
16804;SDS011;8520;50.102;20.010;2023-05-29T10:21:23;8.02;;;4.43;;
16804;SDS011;8520;50.102;20.010;2023-05-29T10:23:54;7.60;;;4.82;;
16804;SDS011;8520;50.102;20.010;2023-05-29T10:26:24;6.40;;;4.93;;
16804;SDS011;8520;50.102;20.010;2023-05-29T10:28:55;10.32;;;5.00;;
16804;SDS011;8520;50.102;20.010;2023-05-29T10:31:33;15.80;;;5.63;;
16804;SDS011;8520;50.102;20.010;2023-05-29T10:34:14;5.32;;;4.93;;
16804;SDS011;8520;50.102;20.010;2023-05-29T10:36:52;4.20;;;3.90;;
16804;SDS011;8520;50.102;20.010;2023-05-29T10:39:30;5.65;;;5.10;;
16804;SDS011;8520;50.102;20.010;2023-05-29T10:41:58;5.53;;;5.13;;
16804;SDS011;8520;50.102;20.010;2023-05-29T10:44:39;6.68;;;4.97;;
16804;SDS011;8520;50.102;20.010;2023-05-29T10:47:11;9.05;;;5.03;;
16804;SDS011;8520;50.102;20.010;2023-05-29T10:49:48;4.68;;;4.25;;
16804;SDS011;8520;50.102;20.010;2023-05-29T10:52:18;8.18;;;4.28;;
16804;SDS011;8520;50.102;20.010;2023-05-29T10:54:52;7.35;;;4.93;;
16804;SDS011;8520;50.102;20.010;2023-05-29T10:57:23;7.72;;;4.70;;
16804;SDS011;8520;50.102;20.010;2023-05-29T10:59:59;8.07;;;6.35;;
16804;SDS011;8520;50.102;20.010;2023-05-29T11:02:37;9.20;;;5.22;;
16804;SDS011;8520;50.102;20.010;2023-05-29T11:05:17;6.93;;;4.38;;
16804;SDS011;8520;50.102;20.010;2023-05-29T11:07:50;6.88;;;4.88;;
16804;SDS011;8520;50.102;20.010;2023-05-29T11:10:42;5.40;;;4.90;;
16804;SDS011;8520;50.102;20.010;2023-05-29T11:13:22;5.38;;;4.97;;
16804;SDS011;8520;50.102;20.010;2023-05-29T11:16:05;6.22;;;5.82;;
16804;SDS011;8520;50.102;20.010;2023-05-29T11:18:39;6.25;;;5.10;;
16804;SDS011;8520;50.102;20.010;2023-05-29T11:21:13;13.95;;;5.18;;
16804;SDS011;8520;50.102;20.010;2023-05-29T11:23:50;5.53;;;5.10;;
16804;SDS011;8520;50.102;20.010;2023-05-29T11:26:19;5.05;;;4.53;;
16804;SDS011;8520;50.102;20.010;2023-05-29T11:28:50;5.93;;;4.53;;
16804;SDS011;8520;50.102;20.010;2023-05-29T11:31:18;5.15;;;4.60;;
16804;SDS011;8520;50.102;20.010;2023-05-29T11:33:50;5.20;;;4.70;;
16804;SDS011;8520;50.102;20.010;2023-05-29T11:36:23;6.78;;;5.00;;
16804;SDS011;8520;50.102;20.010;2023-05-29T11:38:51;4.95;;;4.55;;
16804;SDS011;8520;50.102;20.010;2023-05-29T11:41:19;5.20;;;4.90;;
16804;SDS011;8520;50.102;20.010;2023-05-29T11:43:57;5.60;;;5.20;;
16804;SDS011;8520;50.102;20.010;2023-05-29T11:46:26;4.97;;;4.68;;
16804;SDS011;8520;50.102;20.010;2023-05-29T11:48:56;5.07;;;4.60;;
16804;SDS011;8520;50.102;20.010;2023-05-29T11:51:24;5.43;;;4.97;;
16804;SDS011;8520;50.102;20.010;2023-05-29T11:53:52;5.90;;;5.38;;
16804;SDS011;8520;50.102;20.010;2023-05-29T11:56:24;5.80;;;5.50;;
16804;SDS011;8520;50.102;20.010;2023-05-29T11:58:53;4.88;;;4.53;;
16804;SDS011;8520;50.102;20.010;2023-05-29T12:01:23;5.70;;;5.25;;
16804;SDS011;8520;50.102;20.010;2023-05-29T12:03:52;5.53;;;5.13;;
16804;SDS011;8520;50.102;20.010;2023-05-29T12:06:31;5.97;;;5.30;;
16804;SDS011;8520;50.102;20.010;2023-05-29T12:09:00;5.30;;;4.90;;
16804;SDS011;8520;50.102;20.010;2023-05-29T12:11:30;6.28;;;5.03;;
16804;SDS011;8520;50.102;20.010;2023-05-29T12:14:01;5.60;;;5.13;;
16804;SDS011;8520;50.102;20.010;2023-05-29T12:16:29;5.93;;;5.38;;
16804;SDS011;8520;50.102;20.010;2023-05-29T12:19:00;6.15;;;5.63;;
16804;SDS011;8520;50.102;20.010;2023-05-29T12:21:28;5.78;;;5.32;;
16804;SDS011;8520;50.102;20.010;2023-05-29T12:23:58;6.60;;;6.10;;
16804;SDS011;8520;50.102;20.010;2023-05-29T12:26:29;6.35;;;5.72;;
16804;SDS011;8520;50.102;20.010;2023-05-29T12:29:02;6.00;;;5.47;;
16804;SDS011;8520;50.102;20.010;2023-05-29T12:31:31;6.40;;;5.80;;
16804;SDS011;8520;50.102;20.010;2023-05-29T12:34:01;6.47;;;5.97;;
16804;SDS011;8520;50.102;20.010;2023-05-29T12:36:30;6.68;;;6.28;;
16804;SDS011;8520;50.102;20.010;2023-05-29T12:39:04;5.65;;;5.35;;
16804;SDS011;8520;50.102;20.010;2023-05-29T12:41:35;5.95;;;5.55;;
16804;SDS011;8520;50.102;20.010;2023-05-29T12:44:04;6.07;;;5.57;;
16804;SDS011;8520;50.102;20.010;2023-05-29T12:46:35;5.72;;;5.25;;
16804;SDS011;8520;50.102;20.010;2023-05-29T12:49:12;6.63;;;6.10;;
16804;SDS011;8520;50.102;20.010;2023-05-29T12:51:40;6.15;;;5.50;;
16804;SDS011;8520;50.102;20.010;2023-05-29T12:54:11;6.80;;;5.43;;
16804;SDS011;8520;50.102;20.010;2023-05-29T12:56:39;5.97;;;5.57;;
16804;SDS011;8520;50.102;20.010;2023-05-29T12:59:08;6.47;;;5.93;;
16804;SDS011;8520;50.102;20.010;2023-05-29T13:01:37;6.13;;;5.63;;
16804;SDS011;8520;50.102;20.010;2023-05-29T13:04:07;5.90;;;5.50;;
16804;SDS011;8520;50.102;20.010;2023-05-29T13:06:37;6.20;;;5.60;;
16804;SDS011;8520;50.102;20.010;2023-05-29T13:09:05;6.05;;;5.53;;
16804;SDS011;8520;50.102;20.010;2023-05-29T13:11:36;6.03;;;5.53;;
16804;SDS011;8520;50.102;20.010;2023-05-29T13:14:04;6.80;;;5.55;;
16804;SDS011;8520;50.102;20.010;2023-05-29T13:16:32;6.00;;;5.60;;
16804;SDS011;8520;50.102;20.010;2023-05-29T13:19:02;7.65;;;6.28;;
16804;SDS011;8520;50.102;20.010;2023-05-29T13:21:30;6.90;;;6.50;;
16804;SDS011;8520;50.102;20.010;2023-05-29T13:23:59;6.43;;;5.78;;
16804;SDS011;8520;50.102;20.010;2023-05-29T13:26:27;6.72;;;6.22;;
16804;SDS011;8520;50.102;20.010;2023-05-29T13:28:56;6.65;;;6.03;;
16804;SDS011;8520;50.102;20.010;2023-05-29T13:31:24;6.38;;;5.78;;
16804;SDS011;8520;50.102;20.010;2023-05-29T13:33:53;8.45;;;5.45;;
16804;SDS011;8520;50.102;20.010;2023-05-29T13:36:21;6.13;;;5.50;;
16804;SDS011;8520;50.102;20.010;2023-05-29T13:38:49;5.88;;;5.53;;
16804;SDS011;8520;50.102;20.010;2023-05-29T13:41:17;5.63;;;5.13;;
16804;SDS011;8520;50.102;20.010;2023-05-29T13:43:45;6.32;;;5.75;;
16804;SDS011;8520;50.102;20.010;2023-05-29T13:46:14;6.00;;;5.60;;
16804;SDS011;8520;50.102;20.010;2023-05-29T13:48:43;6.47;;;5.97;;
16804;SDS011;8520;50.102;20.010;2023-05-29T13:51:11;6.53;;;5.88;;
16804;SDS011;8520;50.102;20.010;2023-05-29T13:53:39;6.38;;;5.95;;
16804;SDS011;8520;50.102;20.010;2023-05-29T13:56:07;6.45;;;6.00;;
16804;SDS011;8520;50.102;20.010;2023-05-29T13:58:35;8.77;;;6.15;;
16804;SDS011;8520;50.102;20.010;2023-05-29T14:01:03;8.32;;;5.95;;
16804;SDS011;8520;50.102;20.010;2023-05-29T14:03:33;6.45;;;5.95;;
16804;SDS011;8520;50.102;20.010;2023-05-29T14:06:01;7.20;;;6.80;;
16804;SDS011;8520;50.102;20.010;2023-05-29T14:08:31;5.82;;;5.43;;
16804;SDS011;8520;50.102;20.010;2023-05-29T14:10:59;6.13;;;5.60;;
16804;SDS011;8520;50.102;20.010;2023-05-29T14:13:28;5.95;;;5.05;;
16804;SDS011;8520;50.102;20.010;2023-05-29T14:15:56;5.90;;;5.40;;
16804;SDS011;8520;50.102;20.010;2023-05-29T14:18:25;6.47;;;5.97;;
16804;SDS011;8520;50.102;20.010;2023-05-29T14:20:54;7.07;;;6.30;;
16804;SDS011;8520;50.102;20.010;2023-05-29T14:23:22;9.50;;;6.43;;
16804;SDS011;8520;50.102;20.010;2023-05-29T14:25:51;6.25;;;5.85;;
16804;SDS011;8520;50.102;20.010;2023-05-29T14:28:19;6.30;;;5.85;;
16804;SDS011;8520;50.102;20.010;2023-05-29T14:30:47;6.78;;;6.20;;
16804;SDS011;8520;50.102;20.010;2023-05-29T14:33:15;7.95;;;5.97;;
16804;SDS011;8520;50.102;20.010;2023-05-29T14:35:43;6.53;;;5.80;;
16804;SDS011;8520;50.102;20.010;2023-05-29T14:38:13;6.18;;;5.63;;
16804;SDS011;8520;50.102;20.010;2023-05-29T14:40:41;6.55;;;6.03;;
16804;SDS011;8520;50.102;20.010;2023-05-29T14:43:12;6.20;;;5.60;;
16804;SDS011;8520;50.102;20.010;2023-05-29T14:45:40;6.47;;;5.97;;
16804;SDS011;8520;50.102;20.010;2023-05-29T14:48:08;6.22;;;5.78;;
16804;SDS011;8520;50.102;20.010;2023-05-29T14:50:37;6.47;;;5.93;;
16804;SDS011;8520;50.102;20.010;2023-05-29T14:53:05;6.55;;;6.15;;
16804;SDS011;8520;50.102;20.010;2023-05-29T14:55:35;6.43;;;5.82;;
16804;SDS011;8520;50.102;20.010;2023-05-29T14:58:04;6.00;;;5.50;;
16804;SDS011;8520;50.102;20.010;2023-05-29T15:00:32;6.30;;;5.60;;
16804;SDS011;8520;50.102;20.010;2023-05-29T15:03:01;5.63;;;5.20;;
16804;SDS011;8520;50.102;20.010;2023-05-29T15:05:29;6.10;;;5.70;;